sensor_id;sensor_type;location;lat;lon;timestamp;temperature;humidity
20650;DHT22;10484;48.736;9.332;2023-03-01T00:01:16;1.50;1.00
20650;DHT22;10484;48.736;9.332;2023-03-01T00:03:42;1.40;1.00
20650;DHT22;10484;48.736;9.332;2023-03-01T00:06:08;1.40;1.00
20650;DHT22;10484;48.736;9.332;2023-03-01T00:08:35;1.40;1.00
20650;DHT22;10484;48.736;9.332;2023-03-01T00:11:02;1.40;1.00
20650;DHT22;10484;48.736;9.332;2023-03-01T00:13:28;1.30;1.00
20650;DHT22;10484;48.736;9.332;2023-03-01T00:15:54;1.30;1.00
20650;DHT22;10484;48.736;9.332;2023-03-01T00:18:19;1.30;1.00
20650;DHT22;10484;48.736;9.332;2023-03-01T00:20:55;1.20;1.00
20650;DHT22;10484;48.736;9.332;2023-03-01T00:23:21;1.20;1.00
20650;DHT22;10484;48.736;9.332;2023-03-01T00:25:47;1.20;1.00
20650;DHT22;10484;48.736;9.332;2023-03-01T00:28:13;1.20;1.00
20650;DHT22;10484;48.736;9.332;2023-03-01T00:30:39;1.20;1.00
20650;DHT22;10484;48.736;9.332;2023-03-01T00:33:05;1.20;1.00
20650;DHT22;10484;48.736;9.332;2023-03-01T00:35:32;1.20;1.00
20650;DHT22;10484;48.736;9.332;2023-03-01T00:37:59;1.10;1.00
20650;DHT22;10484;48.736;9.332;2023-03-01T00:40:25;1.10;1.00
20650;DHT22;10484;48.736;9.332;2023-03-01T00:42:51;1.10;1.00
20650;DHT22;10484;48.736;9.332;2023-03-01T00:45:17;1.10;1.00
20650;DHT22;10484;48.736;9.332;2023-03-01T00:47:43;1.10;1.00
20650;DHT22;10484;48.736;9.332;2023-03-01T00:50:10;1.10;1.00
20650;DHT22;10484;48.736;9.332;2023-03-01T00:52:35;1.00;1.00
20650;DHT22;10484;48.736;9.332;2023-03-01T00:55:01;1.00;1.00
20650;DHT22;10484;48.736;9.332;2023-03-01T00:57:27;1.00;1.00
20650;DHT22;10484;48.736;9.332;2023-03-01T00:59:52;1.00;1.00
20650;DHT22;10484;48.736;9.332;2023-03-01T01:02:19;1.00;1.00
20650;DHT22;10484;48.736;9.332;2023-03-01T01:04:45;0.90;1.00
20650;DHT22;10484;48.736;9.332;2023-03-01T01:07:11;0.90;1.00
20650;DHT22;10484;48.736;9.332;2023-03-01T01:09:37;0.90;1.00
20650;DHT22;10484;48.736;9.332;2023-03-01T01:12:03;0.80;1.00
20650;DHT22;10484;48.736;9.332;2023-03-01T01:14:29;0.80;1.00
20650;DHT22;10484;48.736;9.332;2023-03-01T01:16:55;0.70;1.00
20650;DHT22;10484;48.736;9.332;2023-03-01T01:19:21;0.80;1.00
20650;DHT22;10484;48.736;9.332;2023-03-01T01:21:46;0.80;1.00
20650;DHT22;10484;48.736;9.332;2023-03-01T01:24:13;0.80;1.00
20650;DHT22;10484;48.736;9.332;2023-03-01T01:26:40;0.80;1.00
20650;DHT22;10484;48.736;9.332;2023-03-01T01:29:06;0.80;1.00
20650;DHT22;10484;48.736;9.332;2023-03-01T01:31:32;0.80;1.00
20650;DHT22;10484;48.736;9.332;2023-03-01T01:34:00;0.80;1.00
20650;DHT22;10484;48.736;9.332;2023-03-01T01:36:26;0.80;1.00
20650;DHT22;10484;48.736;9.332;2023-03-01T01:38:52;0.70;1.00
20650;DHT22;10484;48.736;9.332;2023-03-01T01:41:19;0.60;1.00
20650;DHT22;10484;48.736;9.332;2023-03-01T01:44:09;0.60;1.00
20650;DHT22;10484;48.736;9.332;2023-03-01T01:46:38;0.70;1.00
20650;DHT22;10484;48.736;9.332;2023-03-01T01:49:17;0.70;1.00
20650;DHT22;10484;48.736;9.332;2023-03-01T01:51:45;0.70;1.00
20650;DHT22;10484;48.736;9.332;2023-03-01T01:54:23;0.70;1.00
20650;DHT22;10484;48.736;9.332;2023-03-01T01:56:55;0.70;1.00
20650;DHT22;10484;48.736;9.332;2023-03-01T01:59:23;0.70;1.00
20650;DHT22;10484;48.736;9.332;2023-03-01T02:01:51;0.70;1.00
20650;DHT22;10484;48.736;9.332;2023-03-01T02:04:17;0.70;1.00
20650;DHT22;10484;48.736;9.332;2023-03-01T02:09:28;0.70;1.00
20650;DHT22;10484;48.736;9.332;2023-03-01T02:11:55;0.70;1.00
20650;DHT22;10484;48.736;9.332;2023-03-01T02:14:21;0.70;1.00
20650;DHT22;10484;48.736;9.332;2023-03-01T02:16:47;0.70;1.00
20650;DHT22;10484;48.736;9.332;2023-03-01T02:22:23;0.70;1.00
20650;DHT22;10484;48.736;9.332;2023-03-01T02:25:09;0.70;1.00
20650;DHT22;10484;48.736;9.332;2023-03-01T02:30:15;0.80;1.00
20650;DHT22;10484;48.736;9.332;2023-03-01T02:32:41;0.80;1.00
20650;DHT22;10484;48.736;9.332;2023-03-01T02:35:13;0.80;1.00
20650;DHT22;10484;48.736;9.332;2023-03-01T02:37:41;0.80;1.00
20650;DHT22;10484;48.736;9.332;2023-03-01T02:40:11;0.80;1.00
20650;DHT22;10484;48.736;9.332;2023-03-01T02:42:45;0.80;1.00
20650;DHT22;10484;48.736;9.332;2023-03-01T02:45:12;0.80;1.00
20650;DHT22;10484;48.736;9.332;2023-03-01T02:47:38;0.80;1.00
20650;DHT22;10484;48.736;9.332;2023-03-01T02:53:16;0.80;1.00
20650;DHT22;10484;48.736;9.332;2023-03-01T02:55:40;0.80;1.00
20650;DHT22;10484;48.736;9.332;2023-03-01T02:58:06;0.80;1.00
20650;DHT22;10484;48.736;9.332;2023-03-01T03:00:42;0.80;1.00
20650;DHT22;10484;48.736;9.332;2023-03-01T03:03:20;0.80;1.00
20650;DHT22;10484;48.736;9.332;2023-03-01T03:05:46;0.80;1.00
20650;DHT22;10484;48.736;9.332;2023-03-01T03:08:11;0.80;1.00
20650;DHT22;10484;48.736;9.332;2023-03-01T03:10:39;0.90;1.00
20650;DHT22;10484;48.736;9.332;2023-03-01T03:13:11;0.80;1.00
20650;DHT22;10484;48.736;9.332;2023-03-01T03:15:37;0.90;1.00
20650;DHT22;10484;48.736;9.332;2023-03-01T03:18:08;0.90;1.00
20650;DHT22;10484;48.736;9.332;2023-03-01T03:20:34;0.80;1.00
20650;DHT22;10484;48.736;9.332;2023-03-01T03:23:00;0.90;1.00
20650;DHT22;10484;48.736;9.332;2023-03-01T03:25:26;0.90;1.00
20650;DHT22;10484;48.736;9.332;2023-03-01T03:27:54;0.80;1.00
20650;DHT22;10484;48.736;9.332;2023-03-01T03:30:23;0.90;1.00
20650;DHT22;10484;48.736;9.332;2023-03-01T03:32:49;0.90;1.00
20650;DHT22;10484;48.736;9.332;2023-03-01T03:35:27;0.80;1.00
20650;DHT22;10484;48.736;9.332;2023-03-01T03:37:55;0.90;1.00
20650;DHT22;10484;48.736;9.332;2023-03-01T03:40:30;0.90;1.00
20650;DHT22;10484;48.736;9.332;2023-03-01T03:42:55;0.90;1.00
20650;DHT22;10484;48.736;9.332;2023-03-01T03:45:21;0.90;1.00
20650;DHT22;10484;48.736;9.332;2023-03-01T03:47:47;0.90;1.00
20650;DHT22;10484;48.736;9.332;2023-03-01T03:50:14;0.90;1.00
20650;DHT22;10484;48.736;9.332;2023-03-01T03:52:41;0.90;1.00
20650;DHT22;10484;48.736;9.332;2023-03-01T03:55:08;0.90;1.00
20650;DHT22;10484;48.736;9.332;2023-03-01T03:57:35;0.90;1.00
20650;DHT22;10484;48.736;9.332;2023-03-01T04:00:00;1.00;1.00
20650;DHT22;10484;48.736;9.332;2023-03-01T04:02:29;0.90;1.00
20650;DHT22;10484;48.736;9.332;2023-03-01T04:04:54;0.90;1.00
20650;DHT22;10484;48.736;9.332;2023-03-01T04:07:20;1.00;1.00
20650;DHT22;10484;48.736;9.332;2023-03-01T04:09:45;1.00;1.00
20650;DHT22;10484;48.736;9.332;2023-03-01T04:12:11;1.00;1.00
20650;DHT22;10484;48.736;9.332;2023-03-01T04:14:36;1.00;1.00
20650;DHT22;10484;48.736;9.332;2023-03-01T04:17:02;1.00;1.00
20650;DHT22;10484;48.736;9.332;2023-03-01T04:19:31;1.10;1.00
20650;DHT22;10484;48.736;9.332;2023-03-01T04:22:02;1.10;1.00
20650;DHT22;10484;48.736;9.332;2023-03-01T04:24:34;1.10;1.00
20650;DHT22;10484;48.736;9.332;2023-03-01T04:27:00;1.10;1.00
20650;DHT22;10484;48.736;9.332;2023-03-01T04:29:26;1.10;1.00
20650;DHT22;10484;48.736;9.332;2023-03-01T04:31:51;1.10;1.00
20650;DHT22;10484;48.736;9.332;2023-03-01T04:34:17;1.10;1.00
20650;DHT22;10484;48.736;9.332;2023-03-01T04:36:42;1.10;1.00
20650;DHT22;10484;48.736;9.332;2023-03-01T04:39:08;1.10;1.00
20650;DHT22;10484;48.736;9.332;2023-03-01T04:41:38;1.10;1.00
20650;DHT22;10484;48.736;9.332;2023-03-01T04:44:04;1.10;1.00
20650;DHT22;10484;48.736;9.332;2023-03-01T04:46:30;1.10;1.00
20650;DHT22;10484;48.736;9.332;2023-03-01T04:48:56;1.10;1.00
20650;DHT22;10484;48.736;9.332;2023-03-01T04:51:21;1.10;1.00
20650;DHT22;10484;48.736;9.332;2023-03-01T04:53:47;1.10;1.00
20650;DHT22;10484;48.736;9.332;2023-03-01T04:56:13;1.10;1.00
20650;DHT22;10484;48.736;9.332;2023-03-01T04:58:39;1.10;1.00
20650;DHT22;10484;48.736;9.332;2023-03-01T05:01:13;1.20;1.00
20650;DHT22;10484;48.736;9.332;2023-03-01T05:03:47;1.10;1.00
20650;DHT22;10484;48.736;9.332;2023-03-01T05:06:14;1.20;1.00
20650;DHT22;10484;48.736;9.332;2023-03-01T05:08:41;1.10;1.00
20650;DHT22;10484;48.736;9.332;2023-03-01T05:11:07;1.10;1.00
20650;DHT22;10484;48.736;9.332;2023-03-01T05:13:37;1.20;1.00
20650;DHT22;10484;48.736;9.332;2023-03-01T05:16:04;1.20;1.00
20650;DHT22;10484;48.736;9.332;2023-03-01T05:18:33;1.20;1.00
20650;DHT22;10484;48.736;9.332;2023-03-01T05:21:06;1.20;1.00
20650;DHT22;10484;48.736;9.332;2023-03-01T05:23:33;1.20;1.00
20650;DHT22;10484;48.736;9.332;2023-03-01T05:26:01;1.20;1.00
20650;DHT22;10484;48.736;9.332;2023-03-01T05:28:27;1.20;1.00
20650;DHT22;10484;48.736;9.332;2023-03-01T05:30:56;1.20;1.00
20650;DHT22;10484;48.736;9.332;2023-03-01T05:33:23;1.20;1.00
20650;DHT22;10484;48.736;9.332;2023-03-01T05:35:50;1.20;1.00
20650;DHT22;10484;48.736;9.332;2023-03-01T05:38:16;1.20;1.00
20650;DHT22;10484;48.736;9.332;2023-03-01T05:40:43;1.20;1.00
20650;DHT22;10484;48.736;9.332;2023-03-01T05:43:09;1.20;1.00
20650;DHT22;10484;48.736;9.332;2023-03-01T05:45:37;1.20;1.00
20650;DHT22;10484;48.736;9.332;2023-03-01T05:48:04;1.20;1.00
20650;DHT22;10484;48.736;9.332;2023-03-01T05:50:32;1.20;1.00
20650;DHT22;10484;48.736;9.332;2023-03-01T05:55:28;1.20;1.00
20650;DHT22;10484;48.736;9.332;2023-03-01T05:57:54;1.20;1.00
20650;DHT22;10484;48.736;9.332;2023-03-01T06:00:21;1.20;1.00
20650;DHT22;10484;48.736;9.332;2023-03-01T06:02:49;1.20;1.00
20650;DHT22;10484;48.736;9.332;2023-03-01T06:05:17;1.20;1.00
20650;DHT22;10484;48.736;9.332;2023-03-01T06:07:43;1.20;1.00
20650;DHT22;10484;48.736;9.332;2023-03-01T06:10:10;1.20;1.00
20650;DHT22;10484;48.736;9.332;2023-03-01T06:12:37;1.20;1.00
20650;DHT22;10484;48.736;9.332;2023-03-01T06:15:04;1.20;1.00
20650;DHT22;10484;48.736;9.332;2023-03-01T06:17:31;1.20;1.00
20650;DHT22;10484;48.736;9.332;2023-03-01T06:19:57;1.30;1.00
20650;DHT22;10484;48.736;9.332;2023-03-01T06:22:22;1.30;1.00
20650;DHT22;10484;48.736;9.332;2023-03-01T06:24:48;1.30;1.00
20650;DHT22;10484;48.736;9.332;2023-03-01T06:27:13;1.30;1.00
20650;DHT22;10484;48.736;9.332;2023-03-01T06:29:39;1.30;1.00
20650;DHT22;10484;48.736;9.332;2023-03-01T06:32:05;1.30;1.00
20650;DHT22;10484;48.736;9.332;2023-03-01T06:34:31;1.30;1.00
20650;DHT22;10484;48.736;9.332;2023-03-01T06:36:57;1.20;1.00
20650;DHT22;10484;48.736;9.332;2023-03-01T06:39:22;1.30;1.00
20650;DHT22;10484;48.736;9.332;2023-03-01T06:41:48;1.30;1.00
20650;DHT22;10484;48.736;9.332;2023-03-01T06:44:14;1.30;1.00
20650;DHT22;10484;48.736;9.332;2023-03-01T06:46:40;1.30;1.00
20650;DHT22;10484;48.736;9.332;2023-03-01T06:49:05;1.30;1.00
20650;DHT22;10484;48.736;9.332;2023-03-01T06:51:36;1.30;1.00
20650;DHT22;10484;48.736;9.332;2023-03-01T06:54:03;1.30;1.00
20650;DHT22;10484;48.736;9.332;2023-03-01T06:56:29;1.30;1.00
20650;DHT22;10484;48.736;9.332;2023-03-01T06:58:54;1.30;1.00
20650;DHT22;10484;48.736;9.332;2023-03-01T07:01:20;1.30;1.00
20650;DHT22;10484;48.736;9.332;2023-03-01T07:03:45;1.30;1.00
20650;DHT22;10484;48.736;9.332;2023-03-01T07:06:11;1.30;1.00
20650;DHT22;10484;48.736;9.332;2023-03-01T07:08:37;1.30;1.00
20650;DHT22;10484;48.736;9.332;2023-03-01T07:11:02;1.20;1.00
20650;DHT22;10484;48.736;9.332;2023-03-01T07:13:29;1.20;1.00
20650;DHT22;10484;48.736;9.332;2023-03-01T07:15:55;1.30;1.00
20650;DHT22;10484;48.736;9.332;2023-03-01T07:18:21;1.30;1.00
20650;DHT22;10484;48.736;9.332;2023-03-01T07:20:47;1.30;1.00
20650;DHT22;10484;48.736;9.332;2023-03-01T07:23:12;1.20;1.00
20650;DHT22;10484;48.736;9.332;2023-03-01T07:25:38;1.20;1.00
20650;DHT22;10484;48.736;9.332;2023-03-01T07:28:04;1.20;1.00
20650;DHT22;10484;48.736;9.332;2023-03-01T07:30:29;1.20;1.00
20650;DHT22;10484;48.736;9.332;2023-03-01T07:32:56;1.30;1.00
20650;DHT22;10484;48.736;9.332;2023-03-01T07:35:23;1.30;1.00
20650;DHT22;10484;48.736;9.332;2023-03-01T07:37:50;1.30;1.00
20650;DHT22;10484;48.736;9.332;2023-03-01T07:40:16;1.20;1.00
20650;DHT22;10484;48.736;9.332;2023-03-01T07:42:41;1.20;1.00
20650;DHT22;10484;48.736;9.332;2023-03-01T07:45:08;1.20;1.00
20650;DHT22;10484;48.736;9.332;2023-03-01T07:47:33;1.30;1.00
20650;DHT22;10484;48.736;9.332;2023-03-01T07:49:59;1.30;1.00
20650;DHT22;10484;48.736;9.332;2023-03-01T07:52:26;1.40;1.00
20650;DHT22;10484;48.736;9.332;2023-03-01T07:54:52;1.40;1.00
20650;DHT22;10484;48.736;9.332;2023-03-01T07:57:17;1.50;1.00
20650;DHT22;10484;48.736;9.332;2023-03-01T07:59:43;1.60;1.00
20650;DHT22;10484;48.736;9.332;2023-03-01T08:02:10;1.60;1.00
20650;DHT22;10484;48.736;9.332;2023-03-01T08:04:36;1.70;1.00
20650;DHT22;10484;48.736;9.332;2023-03-01T08:07:04;1.70;1.00
20650;DHT22;10484;48.736;9.332;2023-03-01T08:09:29;1.80;1.00
20650;DHT22;10484;48.736;9.332;2023-03-01T08:11:56;1.90;1.00
20650;DHT22;10484;48.736;9.332;2023-03-01T08:14:24;1.90;1.00
20650;DHT22;10484;48.736;9.332;2023-03-01T08:16:50;2.00;1.00
20650;DHT22;10484;48.736;9.332;2023-03-01T08:19:16;2.10;1.00
20650;DHT22;10484;48.736;9.332;2023-03-01T08:21:42;2.20;1.00
20650;DHT22;10484;48.736;9.332;2023-03-01T08:24:08;2.20;1.00
20650;DHT22;10484;48.736;9.332;2023-03-01T08:26:35;2.30;1.00
20650;DHT22;10484;48.736;9.332;2023-03-01T08:29:01;2.40;1.00
20650;DHT22;10484;48.736;9.332;2023-03-01T08:31:39;2.50;1.00
20650;DHT22;10484;48.736;9.332;2023-03-01T08:34:08;2.60;1.00
20650;DHT22;10484;48.736;9.332;2023-03-01T08:36:39;2.60;1.00
20650;DHT22;10484;48.736;9.332;2023-03-01T08:39:07;2.70;1.00
20650;DHT22;10484;48.736;9.332;2023-03-01T08:41:33;2.70;1.00
20650;DHT22;10484;48.736;9.332;2023-03-01T08:43:58;2.80;1.00
20650;DHT22;10484;48.736;9.332;2023-03-01T08:46:26;2.90;1.00
20650;DHT22;10484;48.736;9.332;2023-03-01T08:48:51;3.00;1.00
20650;DHT22;10484;48.736;9.332;2023-03-01T08:51:18;3.00;1.00
20650;DHT22;10484;48.736;9.332;2023-03-01T08:53:45;3.00;1.00
20650;DHT22;10484;48.736;9.332;2023-03-01T08:56:11;3.10;1.00
20650;DHT22;10484;48.736;9.332;2023-03-01T08:58:37;3.10;1.00
20650;DHT22;10484;48.736;9.332;2023-03-01T09:01:10;3.20;1.00
20650;DHT22;10484;48.736;9.332;2023-03-01T09:03:36;3.20;1.00
20650;DHT22;10484;48.736;9.332;2023-03-01T09:06:03;3.20;1.00
20650;DHT22;10484;48.736;9.332;2023-03-01T09:08:30;3.20;1.00
20650;DHT22;10484;48.736;9.332;2023-03-01T09:10:55;3.30;1.00
20650;DHT22;10484;48.736;9.332;2023-03-01T09:13:21;3.30;1.00
20650;DHT22;10484;48.736;9.332;2023-03-01T09:15:50;3.30;1.00
20650;DHT22;10484;48.736;9.332;2023-03-01T09:18:16;3.30;1.00
20650;DHT22;10484;48.736;9.332;2023-03-01T09:20:42;3.30;1.00
20650;DHT22;10484;48.736;9.332;2023-03-01T09:23:07;3.30;1.00
20650;DHT22;10484;48.736;9.332;2023-03-01T09:25:34;3.30;1.00
20650;DHT22;10484;48.736;9.332;2023-03-01T09:28:00;3.30;1.00
20650;DHT22;10484;48.736;9.332;2023-03-01T09:30:25;3.40;1.00
20650;DHT22;10484;48.736;9.332;2023-03-01T09:32:51;3.50;1.00
20650;DHT22;10484;48.736;9.332;2023-03-01T09:35:17;3.60;1.00
20650;DHT22;10484;48.736;9.332;2023-03-01T09:37:45;3.70;1.00
20650;DHT22;10484;48.736;9.332;2023-03-01T09:40:16;3.70;1.00
20650;DHT22;10484;48.736;9.332;2023-03-01T09:42:51;3.80;1.00
20650;DHT22;10484;48.736;9.332;2023-03-01T09:45:33;3.90;1.00
20650;DHT22;10484;48.736;9.332;2023-03-01T09:48:00;4.00;1.00
20650;DHT22;10484;48.736;9.332;2023-03-01T09:50:32;4.10;1.00
20650;DHT22;10484;48.736;9.332;2023-03-01T09:53:10;4.20;1.00
20650;DHT22;10484;48.736;9.332;2023-03-01T09:55:44;4.20;1.00
20650;DHT22;10484;48.736;9.332;2023-03-01T10:00:43;4.40;1.00
20650;DHT22;10484;48.736;9.332;2023-03-01T10:03:28;4.40;1.00
20650;DHT22;10484;48.736;9.332;2023-03-01T10:06:14;4.50;1.00
20650;DHT22;10484;48.736;9.332;2023-03-01T10:09:00;4.60;1.00
20650;DHT22;10484;48.736;9.332;2023-03-01T10:11:53;4.60;1.00
20650;DHT22;10484;48.736;9.332;2023-03-01T10:17:36;4.80;1.00
20650;DHT22;10484;48.736;9.332;2023-03-01T10:22:46;5.00;1.00
20650;DHT22;10484;48.736;9.332;2023-03-01T10:25:21;5.10;1.00
20650;DHT22;10484;48.736;9.332;2023-03-01T10:27:54;5.20;1.00
20650;DHT22;10484;48.736;9.332;2023-03-01T10:32:47;5.30;1.00
20650;DHT22;10484;48.736;9.332;2023-03-01T10:35:22;5.30;1.00
20650;DHT22;10484;48.736;9.332;2023-03-01T10:38:10;5.40;1.00
20650;DHT22;10484;48.736;9.332;2023-03-01T10:40:49;5.50;1.00
20650;DHT22;10484;48.736;9.332;2023-03-01T10:43:15;5.60;1.00
20650;DHT22;10484;48.736;9.332;2023-03-01T10:45:41;5.70;1.00
20650;DHT22;10484;48.736;9.332;2023-03-01T10:48:25;5.70;1.00
20650;DHT22;10484;48.736;9.332;2023-03-01T10:53:27;6.00;1.00
20650;DHT22;10484;48.736;9.332;2023-03-01T10:56:12;6.10;1.00
20650;DHT22;10484;48.736;9.332;2023-03-01T10:58:41;6.20;1.00
20650;DHT22;10484;48.736;9.332;2023-03-01T11:01:28;6.30;1.00
20650;DHT22;10484;48.736;9.332;2023-03-01T11:06:33;6.30;1.00
20650;DHT22;10484;48.736;9.332;2023-03-01T11:09:14;6.40;1.00
20650;DHT22;10484;48.736;9.332;2023-03-01T11:11:41;6.40;1.00
20650;DHT22;10484;48.736;9.332;2023-03-01T11:14:12;6.50;1.00
20650;DHT22;10484;48.736;9.332;2023-03-01T11:16:40;6.60;1.00
20650;DHT22;10484;48.736;9.332;2023-03-01T11:22:24;6.70;1.00
20650;DHT22;10484;48.736;9.332;2023-03-01T11:24:49;6.80;1.00
20650;DHT22;10484;48.736;9.332;2023-03-01T11:27:25;6.80;1.00
20650;DHT22;10484;48.736;9.332;2023-03-01T11:30:02;6.90;1.00
20650;DHT22;10484;48.736;9.332;2023-03-01T11:32:38;6.90;1.00
20650;DHT22;10484;48.736;9.332;2023-03-01T11:35:15;7.10;1.00
20650;DHT22;10484;48.736;9.332;2023-03-01T11:38:03;7.10;1.00
20650;DHT22;10484;48.736;9.332;2023-03-01T11:40:35;7.20;1.00
20650;DHT22;10484;48.736;9.332;2023-03-01T11:45:46;7.40;1.00
20650;DHT22;10484;48.736;9.332;2023-03-01T11:51:21;7.60;1.00
20650;DHT22;10484;48.736;9.332;2023-03-01T11:57:00;7.70;1.00
20650;DHT22;10484;48.736;9.332;2023-03-01T12:04:59;8.00;1.00
20650;DHT22;10484;48.736;9.332;2023-03-01T12:10:36;8.10;1.00
20650;DHT22;10484;48.736;9.332;2023-03-01T12:13:29;8.20;1.00
20650;DHT22;10484;48.736;9.332;2023-03-01T12:16:22;8.30;1.00
20650;DHT22;10484;48.736;9.332;2023-03-01T12:32:52;8.70;1.00
20650;DHT22;10484;48.736;9.332;2023-03-01T12:41:17;9.00;1.00
20650;DHT22;10484;48.736;9.332;2023-03-01T12:43:53;9.10;1.00
20650;DHT22;10484;48.736;9.332;2023-03-01T12:46:36;9.10;1.00
20650;DHT22;10484;48.736;9.332;2023-03-01T12:49:13;9.10;1.00
20650;DHT22;10484;48.736;9.332;2023-03-01T12:51:40;9.10;1.00
20650;DHT22;10484;48.736;9.332;2023-03-01T12:54:24;9.00;1.00
20650;DHT22;10484;48.736;9.332;2023-03-01T12:56:51;9.10;1.00
20650;DHT22;10484;48.736;9.332;2023-03-01T13:13:11;9.60;1.00
20650;DHT22;10484;48.736;9.332;2023-03-01T13:15:38;9.50;1.00
20650;DHT22;10484;48.736;9.332;2023-03-01T13:23:31;9.70;1.00
20650;DHT22;10484;48.736;9.332;2023-03-01T13:28:46;9.80;1.00
20650;DHT22;10484;48.736;9.332;2023-03-01T13:33:44;9.70;1.00
20650;DHT22;10484;48.736;9.332;2023-03-01T13:36:11;9.80;1.00
20650;DHT22;10484;48.736;9.332;2023-03-01T13:39:00;9.80;1.00
20650;DHT22;10484;48.736;9.332;2023-03-01T13:46:38;10.10;1.00
20650;DHT22;10484;48.736;9.332;2023-03-01T13:49:04;10.30;1.00
20650;DHT22;10484;48.736;9.332;2023-03-01T13:51:29;10.40;1.00
20650;DHT22;10484;48.736;9.332;2023-03-01T13:53:56;10.40;1.00
20650;DHT22;10484;48.736;9.332;2023-03-01T13:56:28;10.50;1.00
20650;DHT22;10484;48.736;9.332;2023-03-01T13:59:01;10.60;1.00
20650;DHT22;10484;48.736;9.332;2023-03-01T14:01:33;10.60;1.00
20650;DHT22;10484;48.736;9.332;2023-03-01T14:04:00;10.40;1.00
20650;DHT22;10484;48.736;9.332;2023-03-01T14:06:28;10.40;1.00
20650;DHT22;10484;48.736;9.332;2023-03-01T14:09:25;10.30;1.00
20650;DHT22;10484;48.736;9.332;2023-03-01T14:14:59;10.20;1.00
20650;DHT22;10484;48.736;9.332;2023-03-01T14:20:00;10.40;1.00
20650;DHT22;10484;48.736;9.332;2023-03-01T14:22:33;10.40;1.00
20650;DHT22;10484;48.736;9.332;2023-03-01T14:25:17;10.40;1.00
20650;DHT22;10484;48.736;9.332;2023-03-01T14:27:44;10.30;1.00
20650;DHT22;10484;48.736;9.332;2023-03-01T14:32:38;10.40;1.00
20650;DHT22;10484;48.736;9.332;2023-03-01T14:35:26;10.40;1.00
20650;DHT22;10484;48.736;9.332;2023-03-01T14:37:52;10.50;1.00
20650;DHT22;10484;48.736;9.332;2023-03-01T14:40:32;10.50;1.00
20650;DHT22;10484;48.736;9.332;2023-03-01T14:43:00;10.60;1.00
20650;DHT22;10484;48.736;9.332;2023-03-01T14:45:28;10.80;1.00
20650;DHT22;10484;48.736;9.332;2023-03-01T14:47:55;10.90;1.00
20650;DHT22;10484;48.736;9.332;2023-03-01T14:50:41;10.90;1.00
20650;DHT22;10484;48.736;9.332;2023-03-01T14:53:19;10.80;1.00
20650;DHT22;10484;48.736;9.332;2023-03-01T14:55:48;10.60;1.00
20650;DHT22;10484;48.736;9.332;2023-03-01T14:58:19;10.70;1.00
20650;DHT22;10484;48.736;9.332;2023-03-01T15:01:02;10.70;1.00
20650;DHT22;10484;48.736;9.332;2023-03-01T15:03:34;10.80;1.00
20650;DHT22;10484;48.736;9.332;2023-03-01T15:06:03;10.60;1.00
20650;DHT22;10484;48.736;9.332;2023-03-01T15:08:31;10.60;1.00
20650;DHT22;10484;48.736;9.332;2023-03-01T15:13:26;10.40;1.00
20650;DHT22;10484;48.736;9.332;2023-03-01T15:16:10;10.30;1.00
20650;DHT22;10484;48.736;9.332;2023-03-01T15:18:37;10.30;1.00
20650;DHT22;10484;48.736;9.332;2023-03-01T15:21:24;10.20;1.00
20650;DHT22;10484;48.736;9.332;2023-03-01T15:23:56;10.10;1.00
20650;DHT22;10484;48.736;9.332;2023-03-01T15:26:31;10.10;1.00
20650;DHT22;10484;48.736;9.332;2023-03-01T15:28:59;10.10;1.00
20650;DHT22;10484;48.736;9.332;2023-03-01T15:31:32;10.10;1.00
20650;DHT22;10484;48.736;9.332;2023-03-01T15:34:22;10.00;1.00
20650;DHT22;10484;48.736;9.332;2023-03-01T15:36:49;9.90;1.00
20650;DHT22;10484;48.736;9.332;2023-03-01T15:41:56;9.70;1.00
20650;DHT22;10484;48.736;9.332;2023-03-01T15:44:34;9.80;1.00
20650;DHT22;10484;48.736;9.332;2023-03-01T15:47:00;9.70;1.00
20650;DHT22;10484;48.736;9.332;2023-03-01T15:49:38;9.80;1.00
20650;DHT22;10484;48.736;9.332;2023-03-01T15:52:10;9.90;1.00
20650;DHT22;10484;48.736;9.332;2023-03-01T15:54:39;10.00;1.00
20650;DHT22;10484;48.736;9.332;2023-03-01T15:57:11;10.10;1.00
20650;DHT22;10484;48.736;9.332;2023-03-01T15:59:37;9.90;1.00
20650;DHT22;10484;48.736;9.332;2023-03-01T16:02:09;9.90;1.00
20650;DHT22;10484;48.736;9.332;2023-03-01T16:04:34;9.90;1.00
20650;DHT22;10484;48.736;9.332;2023-03-01T16:07:00;10.00;1.00
20650;DHT22;10484;48.736;9.332;2023-03-01T16:09:26;9.90;1.00
20650;DHT22;10484;48.736;9.332;2023-03-01T16:11:53;9.70;1.00
20650;DHT22;10484;48.736;9.332;2023-03-01T16:14:19;9.70;1.00
20650;DHT22;10484;48.736;9.332;2023-03-01T16:16:45;9.60;1.00
20650;DHT22;10484;48.736;9.332;2023-03-01T16:19:11;9.50;1.00
20650;DHT22;10484;48.736;9.332;2023-03-01T16:21:38;9.40;1.00
20650;DHT22;10484;48.736;9.332;2023-03-01T16:24:04;9.30;1.00
20650;DHT22;10484;48.736;9.332;2023-03-01T16:26:29;9.30;1.00
20650;DHT22;10484;48.736;9.332;2023-03-01T16:28:56;9.20;1.00
20650;DHT22;10484;48.736;9.332;2023-03-01T16:31:22;9.10;1.00
20650;DHT22;10484;48.736;9.332;2023-03-01T16:33:49;9.10;1.00
20650;DHT22;10484;48.736;9.332;2023-03-01T16:36:17;9.00;1.00
20650;DHT22;10484;48.736;9.332;2023-03-01T16:38:43;9.00;1.00
20650;DHT22;10484;48.736;9.332;2023-03-01T16:41:14;9.10;1.00
20650;DHT22;10484;48.736;9.332;2023-03-01T16:43:40;9.10;1.00
20650;DHT22;10484;48.736;9.332;2023-03-01T16:46:14;9.10;1.00
20650;DHT22;10484;48.736;9.332;2023-03-01T16:48:40;9.20;1.00
20650;DHT22;10484;48.736;9.332;2023-03-01T16:51:06;9.20;1.00
20650;DHT22;10484;48.736;9.332;2023-03-01T16:53:33;9.20;1.00
20650;DHT22;10484;48.736;9.332;2023-03-01T16:55:59;9.30;1.00
20650;DHT22;10484;48.736;9.332;2023-03-01T16:58:25;9.30;1.00
20650;DHT22;10484;48.736;9.332;2023-03-01T17:00:54;9.40;1.00
20650;DHT22;10484;48.736;9.332;2023-03-01T17:03:22;9.40;1.00
20650;DHT22;10484;48.736;9.332;2023-03-01T17:05:48;9.30;1.00
20650;DHT22;10484;48.736;9.332;2023-03-01T17:08:14;9.30;1.00
20650;DHT22;10484;48.736;9.332;2023-03-01T17:10:40;9.30;1.00
20650;DHT22;10484;48.736;9.332;2023-03-01T17:13:10;9.30;1.00
20650;DHT22;10484;48.736;9.332;2023-03-01T17:15:41;9.30;1.00
20650;DHT22;10484;48.736;9.332;2023-03-01T17:18:08;9.10;1.00
20650;DHT22;10484;48.736;9.332;2023-03-01T17:20:34;9.00;1.00
20650;DHT22;10484;48.736;9.332;2023-03-01T17:22:59;9.10;1.00
20650;DHT22;10484;48.736;9.332;2023-03-01T17:25:25;9.10;1.00
20650;DHT22;10484;48.736;9.332;2023-03-01T17:27:51;9.10;1.00
20650;DHT22;10484;48.736;9.332;2023-03-01T17:30:16;9.10;1.00
20650;DHT22;10484;48.736;9.332;2023-03-01T17:32:42;9.10;1.00
20650;DHT22;10484;48.736;9.332;2023-03-01T17:35:08;9.00;1.00
20650;DHT22;10484;48.736;9.332;2023-03-01T17:37:37;8.90;1.00
20650;DHT22;10484;48.736;9.332;2023-03-01T17:40:04;8.90;1.00
20650;DHT22;10484;48.736;9.332;2023-03-01T17:42:30;8.80;1.00
20650;DHT22;10484;48.736;9.332;2023-03-01T17:44:56;8.70;1.00
20650;DHT22;10484;48.736;9.332;2023-03-01T17:47:22;8.70;1.00
20650;DHT22;10484;48.736;9.332;2023-03-01T17:49:47;8.60;1.00
20650;DHT22;10484;48.736;9.332;2023-03-01T17:52:13;8.50;1.00
20650;DHT22;10484;48.736;9.332;2023-03-01T17:54:38;8.40;1.00
20650;DHT22;10484;48.736;9.332;2023-03-01T17:57:04;8.40;1.00
20650;DHT22;10484;48.736;9.332;2023-03-01T17:59:30;8.30;1.00
20650;DHT22;10484;48.736;9.332;2023-03-01T18:01:58;8.20;1.00
20650;DHT22;10484;48.736;9.332;2023-03-01T18:04:26;8.20;1.00